sensor_id;sensor_type;location;lat;lon;timestamp;temperature;humidity
40454;DHT22;26160;51.858;4.398;2023-01-08T00:02:03;9.90;99.90
40454;DHT22;26160;51.858;4.398;2023-01-08T00:04:29;9.90;99.90
40454;DHT22;26160;51.858;4.398;2023-01-08T00:06:55;9.90;99.90
40454;DHT22;26160;51.858;4.398;2023-01-08T00:09:21;9.80;99.90
40454;DHT22;26160;51.858;4.398;2023-01-08T00:11:47;9.80;99.90
40454;DHT22;26160;51.858;4.398;2023-01-08T00:14:14;9.90;99.90
40454;DHT22;26160;51.858;4.398;2023-01-08T00:16:40;9.90;99.90
40454;DHT22;26160;51.858;4.398;2023-01-08T00:19:06;9.90;99.90
40454;DHT22;26160;51.858;4.398;2023-01-08T00:21:32;10.00;99.90
40454;DHT22;26160;51.858;4.398;2023-01-08T00:23:58;10.00;99.90
40454;DHT22;26160;51.858;4.398;2023-01-08T00:26:25;10.10;99.90
40454;DHT22;26160;51.858;4.398;2023-01-08T00:28:51;10.10;99.90
40454;DHT22;26160;51.858;4.398;2023-01-08T00:31:17;10.10;99.90
40454;DHT22;26160;51.858;4.398;2023-01-08T00:33:43;10.30;99.90
40454;DHT22;26160;51.858;4.398;2023-01-08T00:36:15;10.30;99.90
40454;DHT22;26160;51.858;4.398;2023-01-08T00:38:42;10.30;99.90
40454;DHT22;26160;51.858;4.398;2023-01-08T00:41:09;10.30;99.90
40454;DHT22;26160;51.858;4.398;2023-01-08T00:43:35;10.30;99.90
40454;DHT22;26160;51.858;4.398;2023-01-08T00:46:01;10.40;99.90
40454;DHT22;26160;51.858;4.398;2023-01-08T00:48:28;10.40;99.90
40454;DHT22;26160;51.858;4.398;2023-01-08T00:50:54;10.30;99.90
40454;DHT22;26160;51.858;4.398;2023-01-08T00:53:21;10.30;99.90
40454;DHT22;26160;51.858;4.398;2023-01-08T00:55:47;10.30;99.90
40454;DHT22;26160;51.858;4.398;2023-01-08T00:58:14;10.30;99.90
40454;DHT22;26160;51.858;4.398;2023-01-08T01:00:40;10.20;99.90
40454;DHT22;26160;51.858;4.398;2023-01-08T01:03:06;10.20;99.90
40454;DHT22;26160;51.858;4.398;2023-01-08T01:05:32;10.10;99.90
40454;DHT22;26160;51.858;4.398;2023-01-08T01:07:58;10.10;99.90
40454;DHT22;26160;51.858;4.398;2023-01-08T01:10:25;10.00;99.90
40454;DHT22;26160;51.858;4.398;2023-01-08T01:12:51;9.90;99.90
40454;DHT22;26160;51.858;4.398;2023-01-08T01:15:17;9.90;99.90
40454;DHT22;26160;51.858;4.398;2023-01-08T01:17:44;9.80;99.90
40454;DHT22;26160;51.858;4.398;2023-01-08T01:20:13;9.80;99.90
40454;DHT22;26160;51.858;4.398;2023-01-08T01:22:39;9.80;99.90
40454;DHT22;26160;51.858;4.398;2023-01-08T01:25:06;9.70;99.90
40454;DHT22;26160;51.858;4.398;2023-01-08T01:27:33;9.70;99.90
40454;DHT22;26160;51.858;4.398;2023-01-08T01:29:59;9.60;99.90
40454;DHT22;26160;51.858;4.398;2023-01-08T01:32:25;9.60;99.90
40454;DHT22;26160;51.858;4.398;2023-01-08T01:34:51;9.60;99.90
40454;DHT22;26160;51.858;4.398;2023-01-08T01:37:18;9.60;99.90
40454;DHT22;26160;51.858;4.398;2023-01-08T01:39:44;9.60;99.90
40454;DHT22;26160;51.858;4.398;2023-01-08T01:42:18;9.60;99.90
40454;DHT22;26160;51.858;4.398;2023-01-08T01:45:13;9.60;99.90
40454;DHT22;26160;51.858;4.398;2023-01-08T01:47:40;9.60;99.90
40454;DHT22;26160;51.858;4.398;2023-01-08T01:50:11;9.60;99.90
40454;DHT22;26160;51.858;4.398;2023-01-08T01:52:56;9.60;99.90
40454;DHT22;26160;51.858;4.398;2023-01-08T01:55:25;9.60;99.90
40454;DHT22;26160;51.858;4.398;2023-01-08T01:58:05;9.60;99.90
40454;DHT22;26160;51.858;4.398;2023-01-08T02:03:10;9.60;99.90
40454;DHT22;26160;51.858;4.398;2023-01-08T02:08:24;9.70;99.90
40454;DHT22;26160;51.858;4.398;2023-01-08T02:11:09;9.70;99.90
40454;DHT22;26160;51.858;4.398;2023-01-08T02:13:39;9.70;99.90
40454;DHT22;26160;51.858;4.398;2023-01-08T02:16:16;9.70;99.90
40454;DHT22;26160;51.858;4.398;2023-01-08T02:18:47;9.70;99.90
40454;DHT22;26160;51.858;4.398;2023-01-08T02:24:38;9.70;99.90
40454;DHT22;26160;51.858;4.398;2023-01-08T02:27:06;9.70;99.90
40454;DHT22;26160;51.858;4.398;2023-01-08T02:29:33;9.70;99.90
40454;DHT22;26160;51.858;4.398;2023-01-08T02:32:01;9.70;99.90
40454;DHT22;26160;51.858;4.398;2023-01-08T02:34:27;9.70;99.90
40454;DHT22;26160;51.858;4.398;2023-01-08T02:36:54;9.70;99.90
40454;DHT22;26160;51.858;4.398;2023-01-08T02:45:00;9.70;99.90
40454;DHT22;26160;51.858;4.398;2023-01-08T02:47:34;9.60;99.90
40454;DHT22;26160;51.858;4.398;2023-01-08T02:50:29;9.60;99.90
40454;DHT22;26160;51.858;4.398;2023-01-08T02:53:10;9.60;99.90
40454;DHT22;26160;51.858;4.398;2023-01-08T02:55:38;9.70;99.90
40454;DHT22;26160;51.858;4.398;2023-01-08T02:58:06;9.60;99.90
40454;DHT22;26160;51.858;4.398;2023-01-08T03:00:33;9.70;99.90
40454;DHT22;26160;51.858;4.398;2023-01-08T03:03:11;9.60;99.90
40454;DHT22;26160;51.858;4.398;2023-01-08T03:05:40;9.60;99.90
40454;DHT22;26160;51.858;4.398;2023-01-08T03:08:09;9.60;99.90
40454;DHT22;26160;51.858;4.398;2023-01-08T03:10:37;9.60;99.90
40454;DHT22;26160;51.858;4.398;2023-01-08T03:13:14;9.60;99.90
40454;DHT22;26160;51.858;4.398;2023-01-08T03:15:45;9.60;99.90
40454;DHT22;26160;51.858;4.398;2023-01-08T03:18:17;9.60;99.90
40454;DHT22;26160;51.858;4.398;2023-01-08T03:20:44;9.60;99.90
40454;DHT22;26160;51.858;4.398;2023-01-08T03:23:11;9.50;99.90
40454;DHT22;26160;51.858;4.398;2023-01-08T03:25:41;9.50;99.90
40454;DHT22;26160;51.858;4.398;2023-01-08T03:28:22;9.50;99.90
40454;DHT22;26160;51.858;4.398;2023-01-08T03:30:51;9.50;99.90
40454;DHT22;26160;51.858;4.398;2023-01-08T03:33:18;9.50;99.90
40454;DHT22;26160;51.858;4.398;2023-01-08T03:35:47;9.40;99.90
40454;DHT22;26160;51.858;4.398;2023-01-08T03:38:21;9.30;99.90
40454;DHT22;26160;51.858;4.398;2023-01-08T03:40:53;9.30;99.90
40454;DHT22;26160;51.858;4.398;2023-01-08T03:43:21;9.30;99.90
40454;DHT22;26160;51.858;4.398;2023-01-08T03:45:53;9.30;99.90
40454;DHT22;26160;51.858;4.398;2023-01-08T03:48:20;9.20;99.90
40454;DHT22;26160;51.858;4.398;2023-01-08T03:50:47;9.20;99.90
40454;DHT22;26160;51.858;4.398;2023-01-08T03:53:14;9.20;99.90
40454;DHT22;26160;51.858;4.398;2023-01-08T03:55:40;9.00;99.90
40454;DHT22;26160;51.858;4.398;2023-01-08T03:58:06;8.90;99.90
40454;DHT22;26160;51.858;4.398;2023-01-08T04:00:32;9.00;99.90
40454;DHT22;26160;51.858;4.398;2023-01-08T04:02:58;9.00;99.90
40454;DHT22;26160;51.858;4.398;2023-01-08T04:05:24;9.10;99.90
40454;DHT22;26160;51.858;4.398;2023-01-08T04:07:54;9.00;99.90
40454;DHT22;26160;51.858;4.398;2023-01-08T04:10:20;9.00;99.90
40454;DHT22;26160;51.858;4.398;2023-01-08T04:12:46;9.10;99.90
40454;DHT22;26160;51.858;4.398;2023-01-08T04:15:12;9.00;99.90
40454;DHT22;26160;51.858;4.398;2023-01-08T04:17:38;9.00;99.90
40454;DHT22;26160;51.858;4.398;2023-01-08T04:20:05;8.90;99.90
40454;DHT22;26160;51.858;4.398;2023-01-08T04:22:31;8.80;99.90
40454;DHT22;26160;51.858;4.398;2023-01-08T04:24:57;8.80;99.90
40454;DHT22;26160;51.858;4.398;2023-01-08T04:27:23;8.80;99.90
40454;DHT22;26160;51.858;4.398;2023-01-08T04:29:49;8.80;99.90
40454;DHT22;26160;51.858;4.398;2023-01-08T04:32:15;8.80;99.90
40454;DHT22;26160;51.858;4.398;2023-01-08T04:34:42;8.80;99.90
40454;DHT22;26160;51.858;4.398;2023-01-08T04:37:08;8.80;99.90
40454;DHT22;26160;51.858;4.398;2023-01-08T04:39:34;8.80;99.90
40454;DHT22;26160;51.858;4.398;2023-01-08T04:42:00;8.80;99.90
40454;DHT22;26160;51.858;4.398;2023-01-08T04:44:26;8.80;99.90
40454;DHT22;26160;51.858;4.398;2023-01-08T04:46:52;8.70;99.90
40454;DHT22;26160;51.858;4.398;2023-01-08T04:49:18;8.70;99.90
40454;DHT22;26160;51.858;4.398;2023-01-08T04:51:44;8.60;99.90
40454;DHT22;26160;51.858;4.398;2023-01-08T04:54:10;8.60;99.90
40454;DHT22;26160;51.858;4.398;2023-01-08T04:56:36;8.60;99.90
40454;DHT22;26160;51.858;4.398;2023-01-08T04:59:02;8.60;99.90
40454;DHT22;26160;51.858;4.398;2023-01-08T05:01:29;8.50;99.90
40454;DHT22;26160;51.858;4.398;2023-01-08T05:03:57;8.50;99.90
40454;DHT22;26160;51.858;4.398;2023-01-08T05:06:24;8.50;99.90
40454;DHT22;26160;51.858;4.398;2023-01-08T05:08:50;8.50;99.90
40454;DHT22;26160;51.858;4.398;2023-01-08T05:11:16;8.40;99.90
40454;DHT22;26160;51.858;4.398;2023-01-08T05:13:42;8.50;99.90
40454;DHT22;26160;51.858;4.398;2023-01-08T05:16:09;8.50;99.90
40454;DHT22;26160;51.858;4.398;2023-01-08T05:18:37;8.40;99.90
40454;DHT22;26160;51.858;4.398;2023-01-08T05:21:03;8.30;99.90
40454;DHT22;26160;51.858;4.398;2023-01-08T05:23:31;8.30;99.90
40454;DHT22;26160;51.858;4.398;2023-01-08T05:26:01;8.30;99.90
40454;DHT22;26160;51.858;4.398;2023-01-08T05:28:28;8.20;99.90
40454;DHT22;26160;51.858;4.398;2023-01-08T05:30:55;8.20;99.90
40454;DHT22;26160;51.858;4.398;2023-01-08T05:33:22;8.30;99.90
40454;DHT22;26160;51.858;4.398;2023-01-08T05:35:52;8.30;99.90
40454;DHT22;26160;51.858;4.398;2023-01-08T05:38:20;8.30;99.90
40454;DHT22;26160;51.858;4.398;2023-01-08T05:40:46;8.30;99.90
40454;DHT22;26160;51.858;4.398;2023-01-08T05:43:12;8.20;99.90
40454;DHT22;26160;51.858;4.398;2023-01-08T05:45:41;8.30;99.90
40454;DHT22;26160;51.858;4.398;2023-01-08T05:48:09;8.20;99.90
40454;DHT22;26160;51.858;4.398;2023-01-08T05:50:35;8.20;99.90
40454;DHT22;26160;51.858;4.398;2023-01-08T05:53:07;8.30;99.90
40454;DHT22;26160;51.858;4.398;2023-01-08T05:55:34;8.30;99.90
40454;DHT22;26160;51.858;4.398;2023-01-08T05:58:01;8.40;99.90
40454;DHT22;26160;51.858;4.398;2023-01-08T06:00:29;8.30;99.90
40454;DHT22;26160;51.858;4.398;2023-01-08T06:02:55;8.40;99.90
40454;DHT22;26160;51.858;4.398;2023-01-08T06:05:24;8.40;99.90
40454;DHT22;26160;51.858;4.398;2023-01-08T06:07:50;8.40;99.90
40454;DHT22;26160;51.858;4.398;2023-01-08T06:10:16;8.40;99.90
40454;DHT22;26160;51.858;4.398;2023-01-08T06:12:42;8.40;99.90
40454;DHT22;26160;51.858;4.398;2023-01-08T06:15:09;8.40;99.90
40454;DHT22;26160;51.858;4.398;2023-01-08T06:17:36;8.30;99.90
40454;DHT22;26160;51.858;4.398;2023-01-08T06:20:02;8.30;99.90
40454;DHT22;26160;51.858;4.398;2023-01-08T06:22:28;8.30;99.90
40454;DHT22;26160;51.858;4.398;2023-01-08T06:24:54;8.30;99.90
40454;DHT22;26160;51.858;4.398;2023-01-08T06:27:20;8.30;99.90
40454;DHT22;26160;51.858;4.398;2023-01-08T06:29:46;8.30;99.90
40454;DHT22;26160;51.858;4.398;2023-01-08T06:32:13;8.40;99.90
40454;DHT22;26160;51.858;4.398;2023-01-08T06:34:39;8.40;99.90
40454;DHT22;26160;51.858;4.398;2023-01-08T06:37:05;8.40;99.90
40454;DHT22;26160;51.858;4.398;2023-01-08T06:39:31;8.40;99.90
40454;DHT22;26160;51.858;4.398;2023-01-08T06:41:57;8.30;99.90
40454;DHT22;26160;51.858;4.398;2023-01-08T06:44:23;8.30;99.90
40454;DHT22;26160;51.858;4.398;2023-01-08T06:46:50;8.30;99.90
40454;DHT22;26160;51.858;4.398;2023-01-08T06:49:16;8.30;99.90
40454;DHT22;26160;51.858;4.398;2023-01-08T06:51:42;8.30;99.90
40454;DHT22;26160;51.858;4.398;2023-01-08T06:54:08;8.20;99.90
40454;DHT22;26160;51.858;4.398;2023-01-08T06:56:34;8.20;99.90
40454;DHT22;26160;51.858;4.398;2023-01-08T06:59:00;8.20;99.90
40454;DHT22;26160;51.858;4.398;2023-01-08T07:01:26;8.20;99.90
40454;DHT22;26160;51.858;4.398;2023-01-08T07:03:52;8.20;99.90
40454;DHT22;26160;51.858;4.398;2023-01-08T07:06:20;8.20;99.90
40454;DHT22;26160;51.858;4.398;2023-01-08T07:08:47;8.20;99.90
40454;DHT22;26160;51.858;4.398;2023-01-08T07:11:14;8.10;99.90
40454;DHT22;26160;51.858;4.398;2023-01-08T07:13:41;8.20;99.90
40454;DHT22;26160;51.858;4.398;2023-01-08T07:16:12;8.20;99.90
40454;DHT22;26160;51.858;4.398;2023-01-08T07:18:38;8.20;99.90
40454;DHT22;26160;51.858;4.398;2023-01-08T07:21:06;8.20;99.90
40454;DHT22;26160;51.858;4.398;2023-01-08T07:23:33;8.10;99.90
40454;DHT22;26160;51.858;4.398;2023-01-08T07:26:01;8.10;99.90
40454;DHT22;26160;51.858;4.398;2023-01-08T07:28:27;8.00;99.90
40454;DHT22;26160;51.858;4.398;2023-01-08T07:30:53;8.10;99.90
40454;DHT22;26160;51.858;4.398;2023-01-08T07:33:19;8.00;99.90
40454;DHT22;26160;51.858;4.398;2023-01-08T07:35:55;8.10;99.90
40454;DHT22;26160;51.858;4.398;2023-01-08T07:38:22;8.10;99.90
40454;DHT22;26160;51.858;4.398;2023-01-08T07:40:48;8.00;99.90
40454;DHT22;26160;51.858;4.398;2023-01-08T07:43:14;8.00;99.90
40454;DHT22;26160;51.858;4.398;2023-01-08T07:45:40;8.00;99.90
40454;DHT22;26160;51.858;4.398;2023-01-08T07:48:07;8.00;99.90
40454;DHT22;26160;51.858;4.398;2023-01-08T07:50:36;7.90;99.90
40454;DHT22;26160;51.858;4.398;2023-01-08T07:53:03;8.00;99.90
40454;DHT22;26160;51.858;4.398;2023-01-08T07:55:30;8.00;99.90
40454;DHT22;26160;51.858;4.398;2023-01-08T07:57:57;8.00;99.90
40454;DHT22;26160;51.858;4.398;2023-01-08T08:00:23;8.00;99.90
40454;DHT22;26160;51.858;4.398;2023-01-08T08:02:49;8.00;99.90
40454;DHT22;26160;51.858;4.398;2023-01-08T08:05:15;8.00;99.90
40454;DHT22;26160;51.858;4.398;2023-01-08T08:07:43;8.00;99.90
40454;DHT22;26160;51.858;4.398;2023-01-08T08:10:09;8.10;99.90
40454;DHT22;26160;51.858;4.398;2023-01-08T08:12:36;8.10;99.90
40454;DHT22;26160;51.858;4.398;2023-01-08T08:15:03;8.10;99.90
40454;DHT22;26160;51.858;4.398;2023-01-08T08:17:29;8.10;99.90
40454;DHT22;26160;51.858;4.398;2023-01-08T08:19:55;8.10;99.90
40454;DHT22;26160;51.858;4.398;2023-01-08T08:22:21;8.10;99.90
40454;DHT22;26160;51.858;4.398;2023-01-08T08:24:47;8.20;99.90
40454;DHT22;26160;51.858;4.398;2023-01-08T08:27:13;8.20;99.90
40454;DHT22;26160;51.858;4.398;2023-01-08T08:29:39;8.20;99.90
40454;DHT22;26160;51.858;4.398;2023-01-08T08:32:05;8.20;99.90
40454;DHT22;26160;51.858;4.398;2023-01-08T08:34:32;8.20;99.90
40454;DHT22;26160;51.858;4.398;2023-01-08T08:36:58;8.20;99.90
40454;DHT22;26160;51.858;4.398;2023-01-08T08:39:24;8.10;99.90
40454;DHT22;26160;51.858;4.398;2023-01-08T08:41:50;8.20;99.90
40454;DHT22;26160;51.858;4.398;2023-01-08T08:44:16;8.10;99.90
40454;DHT22;26160;51.858;4.398;2023-01-08T08:46:42;8.20;99.90
40454;DHT22;26160;51.858;4.398;2023-01-08T08:49:08;8.20;99.90
40454;DHT22;26160;51.858;4.398;2023-01-08T08:51:34;8.20;99.90
40454;DHT22;26160;51.858;4.398;2023-01-08T08:54:00;8.30;99.90
40454;DHT22;26160;51.858;4.398;2023-01-08T08:56:26;8.30;99.90
40454;DHT22;26160;51.858;4.398;2023-01-08T08:58:54;8.30;99.90
40454;DHT22;26160;51.858;4.398;2023-01-08T09:01:21;8.30;99.90
40454;DHT22;26160;51.858;4.398;2023-01-08T09:03:47;8.40;99.90
40454;DHT22;26160;51.858;4.398;2023-01-08T09:06:15;8.40;99.90
40454;DHT22;26160;51.858;4.398;2023-01-08T09:08:41;8.40;99.90
40454;DHT22;26160;51.858;4.398;2023-01-08T09:11:07;8.40;99.90
40454;DHT22;26160;51.858;4.398;2023-01-08T09:13:35;8.40;99.90
40454;DHT22;26160;51.858;4.398;2023-01-08T09:16:01;8.50;99.90
40454;DHT22;26160;51.858;4.398;2023-01-08T09:18:28;8.50;99.90
40454;DHT22;26160;51.858;4.398;2023-01-08T09:20:54;8.50;99.90
40454;DHT22;26160;51.858;4.398;2023-01-08T09:23:20;8.50;99.90
40454;DHT22;26160;51.858;4.398;2023-01-08T09:25:46;8.50;99.90
40454;DHT22;26160;51.858;4.398;2023-01-08T09:28:12;8.60;99.90
40454;DHT22;26160;51.858;4.398;2023-01-08T09:30:39;8.60;99.90
40454;DHT22;26160;51.858;4.398;2023-01-08T09:33:05;8.60;99.90
40454;DHT22;26160;51.858;4.398;2023-01-08T09:35:32;8.70;99.90
40454;DHT22;26160;51.858;4.398;2023-01-08T09:37:58;8.70;99.90
40454;DHT22;26160;51.858;4.398;2023-01-08T09:40:41;8.80;99.90
40454;DHT22;26160;51.858;4.398;2023-01-08T09:43:15;8.80;99.90
40454;DHT22;26160;51.858;4.398;2023-01-08T09:45:43;8.90;99.90
40454;DHT22;26160;51.858;4.398;2023-01-08T09:48:13;8.80;99.90
40454;DHT22;26160;51.858;4.398;2023-01-08T09:50:40;9.00;99.90
40454;DHT22;26160;51.858;4.398;2023-01-08T09:53:12;9.00;99.90
40454;DHT22;26160;51.858;4.398;2023-01-08T09:55:39;9.00;99.90
40454;DHT22;26160;51.858;4.398;2023-01-08T10:00:59;9.20;99.90
40454;DHT22;26160;51.858;4.398;2023-01-08T10:03:37;9.20;99.90
40454;DHT22;26160;51.858;4.398;2023-01-08T10:06:13;9.30;99.90
40454;DHT22;26160;51.858;4.398;2023-01-08T10:08:40;9.30;99.90
40454;DHT22;26160;51.858;4.398;2023-01-08T10:11:08;9.40;99.90
40454;DHT22;26160;51.858;4.398;2023-01-08T10:13:38;9.40;99.90
40454;DHT22;26160;51.858;4.398;2023-01-08T10:16:07;9.40;99.90
40454;DHT22;26160;51.858;4.398;2023-01-08T10:18:34;9.40;99.90
40454;DHT22;26160;51.858;4.398;2023-01-08T10:21:01;9.40;99.90
40454;DHT22;26160;51.858;4.398;2023-01-08T10:23:27;9.50;99.90
40454;DHT22;26160;51.858;4.398;2023-01-08T10:25:54;9.50;99.90
40454;DHT22;26160;51.858;4.398;2023-01-08T10:30:50;9.60;99.90
40454;DHT22;26160;51.858;4.398;2023-01-08T10:33:23;9.70;99.90
40454;DHT22;26160;51.858;4.398;2023-01-08T10:36:05;9.70;99.90
40454;DHT22;26160;51.858;4.398;2023-01-08T10:38:36;9.70;99.90
40454;DHT22;26160;51.858;4.398;2023-01-08T10:41:04;9.70;99.90
40454;DHT22;26160;51.858;4.398;2023-01-08T10:43:51;9.70;99.90
40454;DHT22;26160;51.858;4.398;2023-01-08T10:46:40;9.70;99.90
40454;DHT22;26160;51.858;4.398;2023-01-08T10:49:34;9.70;99.90
40454;DHT22;26160;51.858;4.398;2023-01-08T10:51:59;9.70;99.90
40454;DHT22;26160;51.858;4.398;2023-01-08T10:54:39;9.80;99.90
40454;DHT22;26160;51.858;4.398;2023-01-08T10:57:27;9.80;99.90
40454;DHT22;26160;51.858;4.398;2023-01-08T10:59:54;9.80;99.90
40454;DHT22;26160;51.858;4.398;2023-01-08T11:02:34;9.80;99.90
40454;DHT22;26160;51.858;4.398;2023-01-08T11:05:02;9.80;99.90
40454;DHT22;26160;51.858;4.398;2023-01-08T11:07:31;9.80;99.90
40454;DHT22;26160;51.858;4.398;2023-01-08T11:10:00;9.90;99.90
40454;DHT22;26160;51.858;4.398;2023-01-08T11:12:35;9.90;99.90
40454;DHT22;26160;51.858;4.398;2023-01-08T11:15:05;9.90;99.90
40454;DHT22;26160;51.858;4.398;2023-01-08T11:17:33;9.90;99.90
40454;DHT22;26160;51.858;4.398;2023-01-08T11:20:27;10.00;99.90
40454;DHT22;26160;51.858;4.398;2023-01-08T11:23:23;10.00;99.90
40454;DHT22;26160;51.858;4.398;2023-01-08T11:28:50;10.10;99.90
40454;DHT22;26160;51.858;4.398;2023-01-08T11:34:14;10.10;99.90
40454;DHT22;26160;51.858;4.398;2023-01-08T11:40:10;10.30;99.90
40454;DHT22;26160;51.858;4.398;2023-01-08T11:50:43;10.40;99.90
40454;DHT22;26160;51.858;4.398;2023-01-08T12:21:19;10.60;99.90
40454;DHT22;26160;51.858;4.398;2023-01-08T12:26:48;10.80;99.90
40454;DHT22;26160;51.858;4.398;2023-01-08T12:40:41;10.90;99.90
40454;DHT22;26160;51.858;4.398;2023-01-08T12:43:20;10.90;99.90
40454;DHT22;26160;51.858;4.398;2023-01-08T12:45:50;10.90;99.90
40454;DHT22;26160;51.858;4.398;2023-01-08T12:48:20;10.90;99.90
40454;DHT22;26160;51.858;4.398;2023-01-08T12:51:11;10.70;99.90
40454;DHT22;26160;51.858;4.398;2023-01-08T13:01:45;10.80;99.90
40454;DHT22;26160;51.858;4.398;2023-01-08T13:04:12;10.80;99.90
40454;DHT22;26160;51.858;4.398;2023-01-08T13:06:49;10.70;99.90
40454;DHT22;26160;51.858;4.398;2023-01-08T13:09:21;10.60;99.90
40454;DHT22;26160;51.858;4.398;2023-01-08T13:11:54;10.70;99.90
40454;DHT22;26160;51.858;4.398;2023-01-08T13:14:21;10.70;99.90
40454;DHT22;26160;51.858;4.398;2023-01-08T13:17:03;10.70;99.90
40454;DHT22;26160;51.858;4.398;2023-01-08T13:19:38;10.70;99.90
40454;DHT22;26160;51.858;4.398;2023-01-08T13:22:23;10.70;99.90
40454;DHT22;26160;51.858;4.398;2023-01-08T13:24:51;10.70;99.90
40454;DHT22;26160;51.858;4.398;2023-01-08T13:29:46;10.70;99.90
40454;DHT22;26160;51.858;4.398;2023-01-08T13:32:44;10.70;99.90
40454;DHT22;26160;51.858;4.398;2023-01-08T13:37:41;10.70;99.90
40454;DHT22;26160;51.858;4.398;2023-01-08T13:43:30;10.70;99.90
40454;DHT22;26160;51.858;4.398;2023-01-08T13:51:43;10.90;99.90
40454;DHT22;26160;51.858;4.398;2023-01-08T13:57:15;10.90;99.90
40454;DHT22;26160;51.858;4.398;2023-01-08T14:09:05;10.70;99.90
40454;DHT22;26160;51.858;4.398;2023-01-08T14:18:15;10.70;99.90
40454;DHT22;26160;51.858;4.398;2023-01-08T14:21:19;10.70;99.90
40454;DHT22;26160;51.858;4.398;2023-01-08T14:23:51;10.70;99.90
40454;DHT22;26160;51.858;4.398;2023-01-08T14:28:57;10.80;99.90
40454;DHT22;26160;51.858;4.398;2023-01-08T14:34:41;10.80;99.90
40454;DHT22;26160;51.858;4.398;2023-01-08T14:41:10;10.70;99.90
40454;DHT22;26160;51.858;4.398;2023-01-08T14:44:11;10.70;99.90
40454;DHT22;26160;51.858;4.398;2023-01-08T14:46:41;10.60;99.90
40454;DHT22;26160;51.858;4.398;2023-01-08T14:49:51;10.50;99.90
40454;DHT22;26160;51.858;4.398;2023-01-08T14:52:38;10.50;99.90
40454;DHT22;26160;51.858;4.398;2023-01-08T14:57:53;10.40;99.90
40454;DHT22;26160;51.858;4.398;2023-01-08T15:00:49;10.40;99.90
40454;DHT22;26160;51.858;4.398;2023-01-08T15:06:26;10.30;99.90
40454;DHT22;26160;51.858;4.398;2023-01-08T15:09:34;10.20;99.90
40454;DHT22;26160;51.858;4.398;2023-01-08T15:12:23;10.30;99.90
40454;DHT22;26160;51.858;4.398;2023-01-08T15:14:50;10.30;99.90
40454;DHT22;26160;51.858;4.398;2023-01-08T15:17:19;10.30;99.90
40454;DHT22;26160;51.858;4.398;2023-01-08T15:19:51;10.20;99.90
40454;DHT22;26160;51.858;4.398;2023-01-08T15:22:29;10.20;99.90
40454;DHT22;26160;51.858;4.398;2023-01-08T15:24:59;10.20;99.90
40454;DHT22;26160;51.858;4.398;2023-01-08T15:27:27;10.20;99.90
40454;DHT22;26160;51.858;4.398;2023-01-08T15:29:55;10.20;99.90
40454;DHT22;26160;51.858;4.398;2023-01-08T15:32:28;10.10;99.90
40454;DHT22;26160;51.858;4.398;2023-01-08T15:35:00;10.00;99.90
40454;DHT22;26160;51.858;4.398;2023-01-08T15:37:26;10.00;99.90
40454;DHT22;26160;51.858;4.398;2023-01-08T15:39:53;9.90;99.90
40454;DHT22;26160;51.858;4.398;2023-01-08T15:42:29;10.00;99.90
40454;DHT22;26160;51.858;4.398;2023-01-08T15:45:20;9.90;99.90
40454;DHT22;26160;51.858;4.398;2023-01-08T15:47:47;9.90;99.90
40454;DHT22;26160;51.858;4.398;2023-01-08T15:50:13;9.90;99.90
40454;DHT22;26160;51.858;4.398;2023-01-08T15:52:41;9.90;99.90
40454;DHT22;26160;51.858;4.398;2023-01-08T15:55:15;9.90;99.90
40454;DHT22;26160;51.858;4.398;2023-01-08T15:57:42;10.00;99.90
40454;DHT22;26160;51.858;4.398;2023-01-08T16:02:47;10.00;99.90
40454;DHT22;26160;51.858;4.398;2023-01-08T16:05:21;10.00;99.90
40454;DHT22;26160;51.858;4.398;2023-01-08T16:08:02;10.10;99.90
40454;DHT22;26160;51.858;4.398;2023-01-08T16:11:07;10.10;99.90
40454;DHT22;26160;51.858;4.398;2023-01-08T16:13:38;10.20;99.90
40454;DHT22;26160;51.858;4.398;2023-01-08T16:16:15;10.30;99.90
40454;DHT22;26160;51.858;4.398;2023-01-08T16:18:48;10.30;99.90
40454;DHT22;26160;51.858;4.398;2023-01-08T16:21:16;10.30;99.90
40454;DHT22;26160;51.858;4.398;2023-01-08T16:24:22;10.30;99.90
40454;DHT22;26160;51.858;4.398;2023-01-08T16:27:19;10.30;99.90
40454;DHT22;26160;51.858;4.398;2023-01-08T16:29:52;10.40;99.90
40454;DHT22;26160;51.858;4.398;2023-01-08T16:32:33;10.40;99.90
40454;DHT22;26160;51.858;4.398;2023-01-08T16:35:00;10.40;99.90
40454;DHT22;26160;51.858;4.398;2023-01-08T16:37:45;10.40;99.90
40454;DHT22;26160;51.858;4.398;2023-01-08T16:40:13;10.40;99.90
40454;DHT22;26160;51.858;4.398;2023-01-08T16:42:39;10.40;99.90
40454;DHT22;26160;51.858;4.398;2023-01-08T16:45:06;10.50;99.90
40454;DHT22;26160;51.858;4.398;2023-01-08T16:47:46;10.50;99.90
40454;DHT22;26160;51.858;4.398;2023-01-08T16:50:12;10.40;99.90
40454;DHT22;26160;51.858;4.398;2023-01-08T16:52:39;10.40;99.90
40454;DHT22;26160;51.858;4.398;2023-01-08T16:55:07;10.50;99.90
40454;DHT22;26160;51.858;4.398;2023-01-08T16:57:43;10.50;99.90
40454;DHT22;26160;51.858;4.398;2023-01-08T17:00:10;10.50;99.90
40454;DHT22;26160;51.858;4.398;2023-01-08T17:02:49;10.50;99.90
40454;DHT22;26160;51.858;4.398;2023-01-08T17:05:18;10.40;99.90
40454;DHT22;26160;51.858;4.398;2023-01-08T17:07:44;10.50;99.90
40454;DHT22;26160;51.858;4.398;2023-01-08T17:10:20;10.50;99.90
40454;DHT22;26160;51.858;4.398;2023-01-08T17:12:52;10.50;99.90
40454;DHT22;26160;51.858;4.398;2023-01-08T17:15:30;10.60;99.90
40454;DHT22;26160;51.858;4.398;2023-01-08T17:17:58;10.60;99.90
40454;DHT22;26160;51.858;4.398;2023-01-08T17:20:24;10.60;99.90
40454;DHT22;26160;51.858;4.398;2023-01-08T17:22:53;10.50;99.90
40454;DHT22;26160;51.858;4.398;2023-01-08T17:25:22;10.50;99.90
40454;DHT22;26160;51.858;4.398;2023-01-08T17:27:49;10.50;99.90
40454;DHT22;26160;51.858;4.398;2023-01-08T17:30:15;10.50;99.90
40454;DHT22;26160;51.858;4.398;2023-01-08T17:32:43;10.50;99.90
40454;DHT22;26160;51.858;4.398;2023-01-08T17:35:18;10.50;99.90
40454;DHT22;26160;51.858;4.398;2023-01-08T17:37:54;10.50;99.90
40454;DHT22;26160;51.858;4.398;2023-01-08T17:40:20;10.50;99.90
40454;DHT22;26160;51.858;4.398;2023-01-08T17:42:48;10.50;99.90
40454;DHT22;26160;51.858;4.398;2023-01-08T17:45:37;10.40;99.90
40454;DHT22;26160;51.858;4.398;2023-01-08T17:48:13;10.50;99.90
40454;DHT22;26160;51.858;4.398;2023-01-08T17:50:41;10.50;99.90
40454;DHT22;26160;51.858;4.398;2023-01-08T17:53:12;10.60;99.90
40454;DHT22;26160;51.858;4.398;2023-01-08T17:55:46;10.60;99.90
40454;DHT22;26160;51.858;4.398;2023-01-08T17:58:34;10.60;99.90
40454;DHT22;26160;51.858;4.398;2023-01-08T18:01:12;10.60;99.90
40454;DHT22;26160;51.858;4.398;2023-01-08T18:03:39;10.60;99.90
40454;DHT22;26160;51.858;4.398;2023-01-08T18:06:17;10.60;99.90
40454;DHT22;26160;51.858;4.398;2023-01-08T18:08:50;10.60;99.90
40454;DHT22;26160;51.858;4.398;2023-01-08T18:11:20;10.60;99.90
40454;DHT22;26160;51.858;4.398;2023-01-08T18:13:57;10.60;99.90
40454;DHT22;26160;51.858;4.398;2023-01-08T18:16:28;10.50;99.90
40454;DHT22;26160;51.858;4.398;2023-01-08T18:19:10;10.50;99.90